Time;durP1;ratioP1;P1;durP2;ratioP2;P2;SDS_P1;SDS_P2;PMS_P1;PMS_P2;Temp;Humidity;BMP_temperature;BMP_pressure;BME280_temperature;BME280_humidity;BME280_pressure;Samples;Min_cycle;Max_cycle;Signal;HPM_P1;HPM_P2
2023/12/19 00:00:52;;;;;;;165.88;58.17;;;;;;;;;;5074392;28;20049;-76
2023/12/19 00:03:20;;;;;;;165.82;60.53;;;;;;;;;;5072833;28;20032;-78
2023/12/19 00:05:46;;;;;;;144.52;58.20;;;;;;;;;;5088114;28;20131;-76
2023/12/19 00:08:12;;;;;;;150.05;58.33;;;;;;;;;;5072348;28;20064;-75
2023/12/19 00:10:38;;;;;;;139.38;57.67;;;;;;;;;;5071744;28;20050;-78
2023/12/19 00:13:04;;;;;;;144.43;58.80;;;;;;;;;;5071761;28;20067;-76
2023/12/19 00:15:31;;;;;;;155.27;59.13;;;;;;;;;;5070864;28;20158;-76
2023/12/19 00:17:57;;;;;;;173.45;63.83;;;;;;;;;;5071876;28;20024;-76
2023/12/19 00:20:25;;;;;;;172.05;61.60;;;;;;;;;;5086903;28;20024;-76
2023/12/19 00:22:51;;;;;;;186.60;64.70;;;;;;;;;;5071235;28;20044;-76
2023/12/19 00:25:17;;;;;;;178.35;64.55;;;;;;;;;;5073253;28;20037;-76
2023/12/19 00:27:43;;;;;;;174.00;63.72;;;;;;;;;;5068420;28;20039;-75
2023/12/19 00:30:10;;;;;;;184.82;65.35;;;;;;;;;;5070270;28;20033;-75
2023/12/19 00:32:36;;;;;;;189.52;64.38;;;;;;;;;;5069402;28;20342;-75
2023/12/19 00:35:03;;;;;;;189.57;64.50;;;;;;;;;;5069513;28;20024;-75
2023/12/19 00:37:29;;;;;;;193.30;65.53;;;;;;;;;;5070063;28;20056;-76
2023/12/19 00:39:55;;;;;;;187.85;64.20;;;;;;;;;;5072451;28;20029;-77
2023/12/19 00:42:21;;;;;;;207.55;67.50;;;;;;;;;;5069686;28;20056;-77
2023/12/19 00:44:47;;;;;;;191.80;63.70;;;;;;;;;;5070765;28;20056;-76
2023/12/19 00:47:13;;;;;;;175.75;62.25;;;;;;;;;;5085841;28;20032;-77
2023/12/19 00:49:40;;;;;;;206.82;66.93;;;;;;;;;;5069204;28;20409;-76
2023/12/19 00:52:06;;;;;;;201.75;64.68;;;;;;;;;;5070567;28;20119;-77
2023/12/19 00:54:32;;;;;;;197.63;66.85;;;;;;;;;;5069943;28;20034;-76
2023/12/19 00:56:58;;;;;;;198.30;67.70;;;;;;;;;;5070607;28;20033;-77
2023/12/19 00:59:24;;;;;;;194.45;67.53;;;;;;;;;;5070734;28;20477;-76
2023/12/19 01:01:50;;;;;;;196.40;66.03;;;;;;;;;;5069859;28;20565;-75
2023/12/19 01:04:17;;;;;;;194.98;65.88;;;;;;;;;;5070876;28;20035;-76
2023/12/19 01:06:44;;;;;;;207.13;68.28;;;;;;;;;;5087051;28;20033;-78
2023/12/19 01:09:10;;;;;;;202.82;68.32;;;;;;;;;;5085957;28;20039;-76
2023/12/19 01:11:36;;;;;;;205.73;72.22;;;;;;;;;;5072123;28;20136;-77
2023/12/19 01:14:03;;;;;;;211.25;68.97;;;;;;;;;;5070549;28;20021;-77
2023/12/19 01:16:29;;;;;;;203.85;69.03;;;;;;;;;;5070981;28;20047;-75
2023/12/19 01:18:55;;;;;;;201.90;65.03;;;;;;;;;;5070890;28;20032;-76
2023/12/19 01:21:21;;;;;;;204.32;68.70;;;;;;;;;;5071507;28;20052;-77
2023/12/19 01:23:51;;;;;;;216.05;70.22;;;;;;;;;;5081373;28;20039;-75
2023/12/19 01:26:17;;;;;;;207.32;69.70;;;;;;;;;;5072778;28;20025;-76
2023/12/19 01:28:43;;;;;;;201.13;68.82;;;;;;;;;;5069279;28;20052;-75
2023/12/19 01:31:09;;;;;;;197.82;67.95;;;;;;;;;;5070179;28;20101;-76
2023/12/19 01:33:35;;;;;;;198.77;69.22;;;;;;;;;;5069673;28;20031;-75
2023/12/19 01:36:02;;;;;;;200.27;66.13;;;;;;;;;;5068056;28;20103;-77
2023/12/19 01:38:29;;;;;;;179.63;66.60;;;;;;;;;;5069514;28;20032;-77
2023/12/19 01:40:55;;;;;;;197.00;67.93;;;;;;;;;;5051815;28;20127;-76
2023/12/19 01:43:21;;;;;;;196.48;69.55;;;;;;;;;;5069181;28;20059;-75
2023/12/19 01:45:49;;;;;;;189.15;65.00;;;;;;;;;;5069293;28;20028;-76
2023/12/19 01:48:17;;;;;;;186.50;65.57;;;;;;;;;;5083235;28;20043;-76
2023/12/19 01:50:43;;;;;;;183.82;65.43;;;;;;;;;;5065361;28;20405;-76
2023/12/19 01:53:10;;;;;;;196.82;67.63;;;;;;;;;;5064732;28;20021;-77
2023/12/19 01:55:37;;;;;;;202.05;66.45;;;;;;;;;;5069824;28;20043;-77
2023/12/19 01:58:03;;;;;;;218.73;72.18;;;;;;;;;;5069133;28;20041;-76
2023/12/19 02:00:30;;;;;;;196.98;69.40;;;;;;;;;;5086381;28;20032;-77
2023/12/19 02:02:57;;;;;;;203.80;70.20;;;;;;;;;;5068725;28;20028;-76
2023/12/19 02:05:23;;;;;;;206.55;69.13;;;;;;;;;;5067416;28;20040;-75
2023/12/19 02:07:49;;;;;;;200.85;67.25;;;;;;;;;;5066377;28;20067;-75
2023/12/19 02:10:16;;;;;;;187.70;65.75;;;;;;;;;;5068222;28;20116;-76
2023/12/19 02:12:42;;;;;;;201.77;67.50;;;;;;;;;;5068858;28;20024;-77
2023/12/19 02:15:09;;;;;;;166.38;62.80;;;;;;;;;;5068935;28;20500;-77
2023/12/19 02:17:35;;;;;;;187.18;67.30;;;;;;;;;;5069418;28;20025;-76
2023/12/19 02:20:01;;;;;;;176.88;63.42;;;;;;;;;;5069038;28;20040;-76
2023/12/19 02:22:29;;;;;;;184.68;68.32;;;;;;;;;;5069024;28;20039;-75
2023/12/19 02:24:56;;;;;;;183.85;64.88;;;;;;;;;;5067458;28;20192;-77
2023/12/19 02:27:24;;;;;;;178.65;66.38;;;;;;;;;;5067863;28;20048;-75
2023/12/19 02:29:50;;;;;;;165.77;61.10;;;;;;;;;;5068816;28;20111;-76
2023/12/19 02:32:16;;;;;;;181.07;65.57;;;;;;;;;;5071007;28;20036;-76
2023/12/19 02:34:42;;;;;;;160.77;61.80;;;;;;;;;;5068162;28;20032;-76
2023/12/19 02:37:08;;;;;;;174.63;61.25;;;;;;;;;;5068648;28;20343;-75
2023/12/19 02:39:35;;;;;;;168.85;63.10;;;;;;;;;;5050527;28;20177;-76
2023/12/19 02:42:01;;;;;;;161.50;60.50;;;;;;;;;;5069664;28;20044;-75
2023/12/19 02:44:27;;;;;;;162.20;62.75;;;;;;;;;;5069633;28;20025;-76
2023/12/19 02:46:53;;;;;;;150.35;55.75;;;;;;;;;;5084089;28;20063;-76
2023/12/19 02:49:20;;;;;;;176.48;63.85;;;;;;;;;;5068684;28;20020;-76
2023/12/19 02:51:47;;;;;;;166.70;59.58;;;;;;;;;;5067493;28;20056;-77
2023/12/19 02:54:13;;;;;;;176.38;60.78;;;;;;;;;;5063888;28;20045;-76
2023/12/19 02:56:39;;;;;;;169.85;61.13;;;;;;;;;;5066509;28;20043;-78
2023/12/19 02:59:05;;;;;;;172.43;61.88;;;;;;;;;;5066600;28;20135;-76
2023/12/19 03:01:31;;;;;;;186.55;67.25;;;;;;;;;;5067337;28;20040;-77
2023/12/19 03:03:58;;;;;;;174.75;62.00;;;;;;;;;;5066843;28;20016;-76
2023/12/19 03:06:24;;;;;;;167.50;60.35;;;;;;;;;;5069129;28;20115;-76
2023/12/19 03:08:53;;;;;;;177.77;63.95;;;;;;;;;;5049299;28;20036;-78
2023/12/19 03:11:19;;;;;;;171.43;62.28;;;;;;;;;;5067980;28;20047;-77
2023/12/19 03:13:45;;;;;;;175.95;62.33;;;;;;;;;;5066996;28;20547;-77
2023/12/19 03:16:11;;;;;;;178.50;65.10;;;;;;;;;;5082584;28;20040;-77
2023/12/19 03:18:37;;;;;;;174.85;62.85;;;;;;;;;;5077486;28;20075;-77
2023/12/19 03:21:04;;;;;;;170.70;63.75;;;;;;;;;;5066830;28;20331;-77
2023/12/19 03:23:30;;;;;;;172.68;61.63;;;;;;;;;;5068024;28;20025;-77
2023/12/19 03:25:56;;;;;;;170.85;60.70;;;;;;;;;;5067401;28;20460;-78
2023/12/19 03:28:22;;;;;;;167.20;62.75;;;;;;;;;;5049811;28;20056;-76
2023/12/19 03:30:50;;;;;;;171.65;62.45;;;;;;;;;;5069929;28;20381;-80
2023/12/19 03:33:16;;;;;;;154.82;62.33;;;;;;;;;;5068905;28;20025;-78
2023/12/19 03:35:42;;;;;;;163.70;63.03;;;;;;;;;;5048579;28;20057;-77
2023/12/19 03:38:08;;;;;;;167.65;59.72;;;;;;;;;;5067587;28;20035;-76
2023/12/19 03:40:36;;;;;;;153.10;59.15;;;;;;;;;;5067427;28;20044;-79
2023/12/19 03:43:02;;;;;;;158.52;61.00;;;;;;;;;;5066698;28;20054;-77
2023/12/19 03:45:29;;;;;;;161.27;59.40;;;;;;;;;;5050295;28;20033;-76
2023/12/19 03:47:55;;;;;;;162.15;58.13;;;;;;;;;;5048565;28;20063;-77
2023/12/19 03:50:21;;;;;;;145.32;58.80;;;;;;;;;;5066729;28;20040;-78
2023/12/19 03:52:47;;;;;;;141.75;58.05;;;;;;;;;;5083356;28;20043;-77
2023/12/19 03:55:13;;;;;;;152.20;59.33;;;;;;;;;;5083154;28;20033;-75
2023/12/19 03:57:39;;;;;;;141.02;58.20;;;;;;;;;;5069151;28;20033;-76
2023/12/19 04:00:06;;;;;;;131.35;53.92;;;;;;;;;;5067790;28;20047;-77
2023/12/19 04:02:34;;;;;;;135.65;55.28;;;;;;;;;;5067014;28;20109;-76
2023/12/19 04:05:00;;;;;;;136.90;56.00;;;;;;;;;;5069174;28;20280;-78
2023/12/19 04:07:26;;;;;;;125.65;51.28;;;;;;;;;;5068691;28;20794;-78
2023/12/19 04:09:54;;;;;;;131.85;55.38;;;;;;;;;;5050737;28;20035;-77
2023/12/19 04:12:20;;;;;;;136.40;54.50;;;;;;;;;;5084925;28;20324;-78
2023/12/19 04:14:46;;;;;;;121.63;52.47;;;;;;;;;;5067288;28;20028;-76
2023/12/19 04:17:13;;;;;;;119.30;53.60;;;;;;;;;;5067131;28;20107;-76
2023/12/19 04:19:40;;;;;;;125.75;52.75;;;;;;;;;;5083830;28;20040;-76
2023/12/19 04:22:06;;;;;;;115.70;52.53;;;;;;;;;;5050374;28;20036;-76
2023/12/19 04:24:32;;;;;;;124.38;54.40;;;;;;;;;;5083524;28;20051;-76
2023/12/19 04:26:58;;;;;;;128.68;53.88;;;;;;;;;;5084614;28;20043;-76
2023/12/19 04:29:24;;;;;;;123.43;52.50;;;;;;;;;;5073606;28;20435;-77
2023/12/19 04:31:50;;;;;;;122.68;54.42;;;;;;;;;;5073574;28;20024;-77
2023/12/19 04:34:17;;;;;;;127.93;54.33;;;;;;;;;;5082931;28;20551;-75
2023/12/19 04:36:43;;;;;;;119.13;52.60;;;;;;;;;;5083298;28;20059;-74
2023/12/19 04:39:09;;;;;;;130.02;54.63;;;;;;;;;;5070276;28;20033;-76
2023/12/19 04:41:37;;;;;;;133.13;53.78;;;;;;;;;;5082815;28;20024;-76
2023/12/19 04:44:05;;;;;;;113.00;50.80;;;;;;;;;;5070406;28;20116;-77
2023/12/19 04:46:31;;;;;;;118.50;53.85;;;;;;;;;;5071610;28;20443;-76
2023/12/19 04:48:57;;;;;;;104.68;50.20;;;;;;;;;;5070502;28;20039;-76
2023/12/19 04:51:23;;;;;;;114.88;49.22;;;;;;;;;;5067783;28;20064;-76
2023/12/19 04:53:49;;;;;;;110.95;48.22;;;;;;;;;;5090534;28;20039;-76
2023/12/19 04:56:18;;;;;;;107.20;48.80;;;;;;;;;;5075873;28;20029;-76
2023/12/19 04:58:48;;;;;;;113.38;50.40;;;;;;;;;;5070206;28;20040;-75
2023/12/19 05:01:16;;;;;;;98.60;47.85;;;;;;;;;;5070189;28;20098;-78
2023/12/19 05:03:42;;;;;;;99.55;47.55;;;;;;;;;;5086815;28;20032;-75
2023/12/19 05:06:08;;;;;;;100.30;48.92;;;;;;;;;;5086260;28;20028;-78
2023/12/19 05:08:35;;;;;;;101.47;48.13;;;;;;;;;;5071302;28;20102;-74
2023/12/19 05:11:01;;;;;;;89.38;43.95;;;;;;;;;;5071220;28;20457;-76
2023/12/19 05:13:27;;;;;;;99.18;46.58;;;;;;;;;;5070023;28;20043;-76
2023/12/19 05:15:53;;;;;;;93.43;46.95;;;;;;;;;;5072011;28;20027;-76
2023/12/19 05:18:19;;;;;;;88.43;45.53;;;;;;;;;;5069940;28;20032;-77
2023/12/19 05:20:46;;;;;;;82.55;43.03;;;;;;;;;;5070581;28;20102;-76
2023/12/19 05:23:12;;;;;;;78.03;43.65;;;;;;;;;;5073735;28;20024;-75
2023/12/19 05:25:38;;;;;;;83.40;44.20;;;;;;;;;;5075409;28;20060;-76
2023/12/19 05:28:04;;;;;;;87.32;43.88;;;;;;;;;;5069773;28;20130;-76
2023/12/19 05:30:30;;;;;;;84.32;42.03;;;;;;;;;;5070465;28;20024;-77
2023/12/19 05:32:56;;;;;;;76.75;40.28;;;;;;;;;;5070991;28;20129;-76
2023/12/19 05:35:26;;;;;;;81.65;42.30;;;;;;;;;;5069028;28;20086;-76
2023/12/19 05:37:53;;;;;;;77.78;41.05;;;;;;;;;;5069861;28;20044;-77
2023/12/19 05:40:19;;;;;;;78.03;41.95;;;;;;;;;;5086242;28;20068;-78
2023/12/19 05:42:45;;;;;;;80.88;42.45;;;;;;;;;;5069901;28;20032;-76
2023/12/19 05:45:12;;;;;;;89.85;44.72;;;;;;;;;;5069439;28;20111;-78
2023/12/19 05:47:38;;;;;;;86.65;43.30;;;;;;;;;;5084157;28;20033;-76
2023/12/19 05:50:04;;;;;;;85.55;44.38;;;;;;;;;;5069490;28;20108;-76
2023/12/19 05:52:30;;;;;;;86.68;44.67;;;;;;;;;;5069158;28;20028;-76
2023/12/19 05:54:57;;;;;;;91.72;43.70;;;;;;;;;;5072328;28;20024;-76
2023/12/19 05:57:26;;;;;;;83.40;44.55;;;;;;;;;;5050614;28;20039;-77
2023/12/19 05:59:52;;;;;;;80.25;40.63;;;;;;;;;;5068414;28;20064;-75
2023/12/19 06:02:20;;;;;;;72.97;38.65;;;;;;;;;;5069451;28;20036;-75
2023/12/19 06:04:47;;;;;;;73.85;40.30;;;;;;;;;;5067938;28;20028;-76
2023/12/19 06:07:13;;;;;;;79.95;40.30;;;;;;;;;;5101084;28;20059;-75
2023/12/19 06:09:39;;;;;;;71.88;37.28;;;;;;;;;;5066693;28;20044;-76
2023/12/19 06:12:06;;;;;;;74.32;39.45;;;;;;;;;;5085040;28;20478;-75
2023/12/19 06:14:32;;;;;;;65.82;36.95;;;;;;;;;;5071954;28;20032;-77
2023/12/19 06:16:59;;;;;;;73.85;39.38;;;;;;;;;;5085095;28;20312;-77
2023/12/19 06:19:25;;;;;;;76.68;39.90;;;;;;;;;;5052630;28;20137;-77
2023/12/19 06:21:52;;;;;;;72.13;38.67;;;;;;;;;;5070612;28;20064;-79
2023/12/19 06:24:18;;;;;;;72.85;38.85;;;;;;;;;;5069577;28;20051;-79
2023/12/19 06:26:44;;;;;;;74.00;40.38;;;;;;;;;;5083463;28;20057;-80
2023/12/19 06:29:11;;;;;;;79.85;42.72;;;;;;;;;;5084015;28;20067;-79
2023/12/19 06:31:44;;;;;;;78.40;42.60;;;;;;;;;;5069512;28;20051;-81
2023/12/19 06:34:10;;;;;;;77.55;44.45;;;;;;;;;;5050617;28;20029;-75
2023/12/19 06:36:40;;;;;;;86.45;43.88;;;;;;;;;;5062033;28;20560;-79
2023/12/19 06:39:06;;;;;;;87.45;45.53;;;;;;;;;;5069025;28;20035;-78
2023/12/19 06:41:32;;;;;;;82.72;44.15;;;;;;;;;;5071358;28;20058;-78
2023/12/19 06:43:58;;;;;;;89.68;46.30;;;;;;;;;;5076304;28;20132;-79
2023/12/19 06:46:24;;;;;;;89.05;47.05;;;;;;;;;;5067282;28;20052;-77
2023/12/19 06:48:51;;;;;;;95.15;48.03;;;;;;;;;;5068621;28;20051;-77
2023/12/19 06:51:27;;;;;;;97.35;48.88;;;;;;;;;;5068930;28;20028;-77
2023/12/19 06:53:56;;;;;;;104.88;50.67;;;;;;;;;;5083983;28;20120;-76
2023/12/19 06:56:29;;;;;;;97.35;50.67;;;;;;;;;;5064418;28;20032;-77
2023/12/19 06:58:55;;;;;;;107.32;52.35;;;;;;;;;;5068875;28;20593;-77
2023/12/19 07:01:22;;;;;;;101.93;52.33;;;;;;;;;;5067545;28;20054;-79
2023/12/19 07:03:48;;;;;;;100.68;50.35;;;;;;;;;;5068342;28;20033;-79
2023/12/19 07:06:16;;;;;;;99.05;49.50;;;;;;;;;;5069712;28;20063;-78
2023/12/19 07:08:42;;;;;;;93.97;48.15;;;;;;;;;;5072589;28;20068;-78
2023/12/19 07:11:09;;;;;;;96.05;49.33;;;;;;;;;;5067783;28;20033;-79
2023/12/19 07:13:35;;;;;;;103.05;50.50;;;;;;;;;;5075472;28;20035;-78
2023/12/19 07:16:05;;;;;;;100.90;49.92;;;;;;;;;;5084391;28;20032;-78
2023/12/19 07:18:31;;;;;;;107.90;52.83;;;;;;;;;;5071388;28;20496;-76
2023/12/19 07:20:57;;;;;;;98.97;50.92;;;;;;;;;;5074594;28;20032;-77
2023/12/19 07:23:23;;;;;;;104.55;51.22;;;;;;;;;;5089885;28;20119;-79
2023/12/19 07:25:49;;;;;;;106.75;51.05;;;;;;;;;;5067335;28;20032;-76
2023/12/19 07:28:16;;;;;;;102.75;53.22;;;;;;;;;;5078250;28;20406;-78
2023/12/19 07:30:42;;;;;;;109.03;54.45;;;;;;;;;;5076262;28;20101;-77
2023/12/19 07:33:08;;;;;;;106.20;52.47;;;;;;;;;;5052697;28;20091;-78
2023/12/19 07:35:34;;;;;;;104.75;52.17;;;;;;;;;;5067440;28;20029;-77
2023/12/19 07:38:01;;;;;;;105.88;52.20;;;;;;;;;;5069984;28;20032;-80
2023/12/19 07:40:27;;;;;;;114.70;53.53;;;;;;;;;;5079147;28;20354;-77
2023/12/19 07:42:56;;;;;;;107.25;52.75;;;;;;;;;;5068515;28;20469;-80
2023/12/19 07:45:22;;;;;;;111.90;51.40;;;;;;;;;;5067150;28;20106;-78
2023/12/19 07:47:48;;;;;;;102.65;48.58;;;;;;;;;;5067013;28;20043;-80
2023/12/19 07:50:15;;;;;;;100.88;51.17;;;;;;;;;;5066517;28;20064;-77
2023/12/19 07:52:41;;;;;;;106.90;51.42;;;;;;;;;;5064903;28;20384;-78
2023/12/19 07:55:10;;;;;;;106.60;49.33;;;;;;;;;;5065453;28;20024;-80
2023/12/19 07:57:39;;;;;;;98.85;47.65;;;;;;;;;;5066735;28;20101;-80
2023/12/19 08:00:05;;;;;;;94.22;47.78;;;;;;;;;;5067044;28;20085;-78
2023/12/19 08:02:38;;;;;;;94.68;48.00;;;;;;;;;;5074955;28;20041;-77
2023/12/19 08:05:05;;;;;;;106.32;52.40;;;;;;;;;;5053375;28;20031;-78
2023/12/19 08:07:31;;;;;;;97.07;50.60;;;;;;;;;;5084640;28;20044;-79
2023/12/19 08:09:57;;;;;;;102.75;49.00;;;;;;;;;;5057070;28;20025;-80
2023/12/19 08:12:23;;;;;;;99.28;49.17;;;;;;;;;;5068365;28;20344;-79
2023/12/19 08:14:49;;;;;;;100.38;50.00;;;;;;;;;;5071301;28;20035;-79
2023/12/19 08:17:16;;;;;;;100.20;49.08;;;;;;;;;;5072334;28;20035;-80
2023/12/19 08:19:42;;;;;;;95.35;49.70;;;;;;;;;;5087774;28;20115;-77
2023/12/19 08:22:08;;;;;;;95.50;49.67;;;;;;;;;;5075150;28;20115;-77
2023/12/19 08:24:34;;;;;;;95.65;47.08;;;;;;;;;;5092441;28;20093;-79
2023/12/19 08:27:00;;;;;;;96.85;47.13;;;;;;;;;;5093032;28;20032;-78
2023/12/19 08:29:26;;;;;;;96.50;47.97;;;;;;;;;;5078260;28;20040;-77
2023/12/19 08:31:53;;;;;;;94.38;48.17;;;;;;;;;;5069977;28;20046;-77
2023/12/19 08:34:20;;;;;;;93.95;46.55;;;;;;;;;;5070294;28;20098;-77
2023/12/19 08:36:46;;;;;;;92.00;47.58;;;;;;;;;;5065742;28;20037;-76
2023/12/19 08:39:12;;;;;;;86.47;47.22;;;;;;;;;;5069746;28;20036;-78
2023/12/19 08:41:38;;;;;;;87.20;46.15;;;;;;;;;;5071065;28;20123;-77
2023/12/19 08:44:05;;;;;;;87.55;45.65;;;;;;;;;;5069816;28;20140;-76
2023/12/19 08:46:31;;;;;;;91.45;46.38;;;;;;;;;;5072764;28;20411;-76
2023/12/19 08:48:57;;;;;;;85.10;45.05;;;;;;;;;;5087680;28;20537;-80
2023/12/19 08:51:23;;;;;;;79.63;44.17;;;;;;;;;;5074586;28;20021;-78
2023/12/19 08:53:49;;;;;;;84.18;44.85;;;;;;;;;;5069115;28;20028;-77
2023/12/19 08:56:15;;;;;;;81.63;45.45;;;;;;;;;;5071104;28;20116;-77
2023/12/19 08:58:44;;;;;;;85.65;43.95;;;;;;;;;;5103641;28;20482;-78
2023/12/19 09:01:10;;;;;;;83.80;43.13;;;;;;;;;;5069749;28;20418;-77
2023/12/19 09:03:37;;;;;;;73.47;41.78;;;;;;;;;;5071305;28;20033;-79
2023/12/19 09:06:04;;;;;;;80.47;42.63;;;;;;;;;;5071037;28;20037;-77
2023/12/19 09:08:32;;;;;;;80.45;42.85;;;;;;;;;;5071714;28;20158;-77
2023/12/19 09:10:58;;;;;;;70.70;40.40;;;;;;;;;;5071725;28;20036;-78
2023/12/19 09:13:24;;;;;;;68.90;37.38;;;;;;;;;;5070794;28;20115;-78
2023/12/19 09:15:50;;;;;;;71.63;38.95;;;;;;;;;;5071658;28;20021;-77
2023/12/19 09:18:18;;;;;;;69.15;39.40;;;;;;;;;;5069115;28;20036;-77
2023/12/19 09:20:44;;;;;;;74.03;41.72;;;;;;;;;;5070308;28;20024;-80
2023/12/19 09:23:10;;;;;;;72.30;38.75;;;;;;;;;;5071472;28;20403;-76
2023/12/19 09:25:37;;;;;;;72.90;39.17;;;;;;;;;;5091549;28;20032;-77
2023/12/19 09:28:03;;;;;;;67.82;39.38;;;;;;;;;;5080770;28;20268;-79
2023/12/19 09:30:29;;;;;;;60.95;36.40;;;;;;;;;;5069866;28;20436;-78
2023/12/19 09:32:55;;;;;;;64.32;38.72;;;;;;;;;;5069636;28;20040;-78
2023/12/19 09:35:21;;;;;;;65.80;38.30;;;;;;;;;;5071328;28;20028;-76
2023/12/19 09:37:47;;;;;;;68.15;36.22;;;;;;;;;;5070309;28;20048;-77
2023/12/19 09:40:15;;;;;;;68.13;40.40;;;;;;;;;;5093738;28;20052;-75
2023/12/19 09:42:42;;;;;;;65.10;36.80;;;;;;;;;;5091532;28;20071;-79
2023/12/19 09:45:09;;;;;;;69.70;38.15;;;;;;;;;;5089959;28;20089;-77
2023/12/19 09:47:39;;;;;;;65.93;38.03;;;;;;;;;;5070530;28;20078;-77
2023/12/19 09:50:08;;;;;;;;;;;;;;;;;;5069547;28;20025;-78
2023/12/19 09:52:35;;;;;;;69.75;39.55;;;;;;;;;;5068598;28;19908;-77
2023/12/19 09:55:04;;;;;;;68.50;38.85;;;;;;;;;;5067527;28;20119;-78
2023/12/19 09:57:33;;;;;;;65.75;37.03;;;;;;;;;;5067233;28;20169;-77
2023/12/19 10:00:07;;;;;;;67.30;38.83;;;;;;;;;;5068165;28;20024;-78
2023/12/19 10:02:33;;;;;;;72.72;39.88;;;;;;;;;;5068718;28;20024;-78
2023/12/19 10:04:59;;;;;;;61.90;38.33;;;;;;;;;;5050051;28;20075;-77
2023/12/19 10:07:27;;;;;;;61.08;38.60;;;;;;;;;;5050028;28;20044;-78
2023/12/19 10:09:54;;;;;;;68.50;36.55;;;;;;;;;;5067517;28;20219;-78
2023/12/19 10:12:21;;;;;;;65.47;37.53;;;;;;;;;;5069843;28;20462;-79
2023/12/19 10:14:47;;;;;;;59.00;35.90;;;;;;;;;;5067181;28;20430;-78
2023/12/19 10:17:15;;;;;;;71.93;37.38;;;;;;;;;;5085702;28;20036;-79
2023/12/19 10:19:41;;;;;;;68.95;36.38;;;;;;;;;;5070203;28;20024;-81
2023/12/19 10:22:07;;;;;;;64.13;36.03;;;;;;;;;;5070555;28;20101;-78
2023/12/19 10:24:34;;;;;;;66.65;35.42;;;;;;;;;;5070059;28;20040;-78
2023/12/19 10:27:01;;;;;;;61.33;33.63;;;;;;;;;;5069848;28;20044;-79
2023/12/19 10:29:28;;;;;;;62.20;36.85;;;;;;;;;;5069002;28;20064;-77
2023/12/19 10:31:54;;;;;;;57.20;34.28;;;;;;;;;;5085003;28;20054;-78
2023/12/19 10:34:22;;;;;;;62.42;33.03;;;;;;;;;;5075082;28;20052;-80
2023/12/19 10:36:49;;;;;;;59.80;35.28;;;;;;;;;;5068700;28;20410;-78
2023/12/19 10:39:18;;;;;;;62.05;35.78;;;;;;;;;;5069560;28;20453;-78
2023/12/19 10:41:45;;;;;;;62.85;36.75;;;;;;;;;;5070360;28;20097;-77
2023/12/19 10:44:11;;;;;;;59.78;33.83;;;;;;;;;;5085483;28;20042;-78
2023/12/19 10:46:38;;;;;;;77.55;36.25;;;;;;;;;;5088056;28;20077;-79
2023/12/19 10:49:05;;;;;;;61.72;35.20;;;;;;;;;;5088442;28;20036;-78
2023/12/19 10:51:32;;;;;;;55.45;31.35;;;;;;;;;;5089936;28;20028;-80
2023/12/19 10:54:01;;;;;;;56.60;34.55;;;;;;;;;;5069035;28;20598;-79
2023/12/19 10:56:29;;;;;;;60.22;34.47;;;;;;;;;;5067917;28;20028;-77
2023/12/19 10:58:58;;;;;;;60.47;34.50;;;;;;;;;;5076816;28;20039;-78
2023/12/19 11:01:26;;;;;;;59.53;35.70;;;;;;;;;;5089425;28;20051;-76
2023/12/19 11:04:04;;;;;;;56.75;33.85;;;;;;;;;;5087340;28;20028;-80
2023/12/19 11:06:34;;;;;;;57.08;33.03;;;;;;;;;;5069038;28;20090;-78
2023/12/19 11:09:05;;;;;;;53.03;32.97;;;;;;;;;;5066096;28;20040;-77
2023/12/19 11:11:36;;;;;;;54.95;32.58;;;;;;;;;;5068165;28;20384;-78
2023/12/19 11:14:03;;;;;;;62.25;34.35;;;;;;;;;;5068717;28;20484;-79
2023/12/19 11:16:46;;;;;;;53.55;33.35;;;;;;;;;;5066142;28;20383;-79
2023/12/19 11:19:31;;;;;;;56.70;33.58;;;;;;;;;;5066955;28;20035;-78
2023/12/19 11:22:09;;;;;;;55.47;33.45;;;;;;;;;;5068534;28;20489;-78
2023/12/19 11:24:54;;;;;;;62.00;32.63;;;;;;;;;;5072679;28;20274;-75
2023/12/19 11:27:21;;;;;;;57.85;34.72;;;;;;;;;;5070111;28;20387;-76
2023/12/19 11:29:53;;;;;;;64.75;36.75;;;;;;;;;;5067703;28;20029;-76
2023/12/19 11:32:40;;;;;;;58.20;33.05;;;;;;;;;;5068709;28;20016;-77
2023/12/19 11:35:12;;;;;;;56.10;31.73;;;;;;;;;;5068570;28;20116;-79
2023/12/19 11:37:39;;;;;;;59.30;33.05;;;;;;;;;;5067368;28;20448;-76
2023/12/19 11:40:08;;;;;;;55.80;32.92;;;;;;;;;;5067791;28;20036;-77
2023/12/19 11:42:41;;;;;;;56.13;33.30;;;;;;;;;;5073520;28;20024;-77
2023/12/19 11:45:19;;;;;;;49.88;30.70;;;;;;;;;;5075413;28;20028;-79
2023/12/19 11:47:45;;;;;;;51.10;30.13;;;;;;;;;;5071766;28;20086;-80
2023/12/19 11:50:12;;;;;;;48.35;29.77;;;;;;;;;;5052755;28;20036;-79
2023/12/19 11:52:38;;;;;;;46.92;28.23;;;;;;;;;;5071250;28;20029;-79
2023/12/19 11:55:07;;;;;;;47.83;30.98;;;;;;;;;;5082492;28;20036;-78
2023/12/19 11:57:34;;;;;;;48.40;29.13;;;;;;;;;;5072822;28;20473;-78
2023/12/19 12:00:01;;;;;;;44.95;28.85;;;;;;;;;;5073181;28;20032;-79
2023/12/19 12:02:38;;;;;;;43.55;27.63;;;;;;;;;;5072753;28;20107;-80
2023/12/19 12:05:04;;;;;;;41.72;27.55;;;;;;;;;;5071617;28;20068;-79
2023/12/19 12:07:31;;;;;;;41.90;26.98;;;;;;;;;;5088134;28;20116;-79
2023/12/19 12:10:04;;;;;;;47.50;26.98;;;;;;;;;;5072160;28;20056;-78
2023/12/19 12:12:32;;;;;;;49.10;28.88;;;;;;;;;;5063769;28;20024;-78
2023/12/19 12:15:05;;;;;;;44.90;27.00;;;;;;;;;;5073414;28;20052;-77
2023/12/19 12:17:33;;;;;;;43.75;27.88;;;;;;;;;;5081179;28;20045;-76
2023/12/19 12:19:59;;;;;;;43.42;27.85;;;;;;;;;;5074533;28;20166;-77
2023/12/19 12:22:26;;;;;;;43.53;27.52;;;;;;;;;;5071401;28;20036;-77
2023/12/19 12:24:56;;;;;;;40.72;26.17;;;;;;;;;;5099196;28;20032;-76
2023/12/19 12:27:28;;;;;;;39.72;26.50;;;;;;;;;;5069660;28;20174;-75
2023/12/19 12:30:00;;;;;;;39.92;26.15;;;;;;;;;;5067039;28;20028;-76
2023/12/19 12:32:26;;;;;;;41.20;26.50;;;;;;;;;;5070168;28;20042;-76
2023/12/19 12:34:53;;;;;;;33.45;23.15;;;;;;;;;;5069378;28;20154;-78
2023/12/19 12:37:19;;;;;;;34.08;23.48;;;;;;;;;;5071083;28;20025;-75
2023/12/19 12:39:46;;;;;;;38.72;24.52;;;;;;;;;;5072345;28;20036;-77
2023/12/19 12:42:15;;;;;;;34.97;23.10;;;;;;;;;;5086781;28;20035;-77
2023/12/19 12:44:41;;;;;;;34.63;22.52;;;;;;;;;;5073650;28;20032;-77
2023/12/19 12:47:08;;;;;;;33.80;22.55;;;;;;;;;;5070285;28;20113;-77
2023/12/19 12:49:37;;;;;;;35.20;22.65;;;;;;;;;;5070546;28;20028;-76
2023/12/19 12:52:04;;;;;;;35.22;23.27;;;;;;;;;;5069782;28;20056;-77
2023/12/19 12:54:30;;;;;;;36.13;23.88;;;;;;;;;;5070034;28;20512;-76
2023/12/19 12:56:57;;;;;;;31.95;22.00;;;;;;;;;;5071387;28;20080;-77
2023/12/19 12:59:28;;;;;;;33.05;21.75;;;;;;;;;;5071858;28;20060;-78
2023/12/19 13:01:55;;;;;;;34.22;22.10;;;;;;;;;;5071682;28;20040;-76
2023/12/19 13:04:22;;;;;;;37.53;22.40;;;;;;;;;;5087751;28;20332;-78
2023/12/19 13:06:50;;;;;;;37.63;23.35;;;;;;;;;;5071733;28;20033;-76
2023/12/19 13:09:20;;;;;;;33.25;22.13;;;;;;;;;;5075031;28;20117;-76
2023/12/19 13:11:55;;;;;;;33.33;21.98;;;;;;;;;;5071769;28;20116;-75
2023/12/19 13:14:22;;;;;;;34.70;22.48;;;;;;;;;;5069868;28;20024;-76
2023/12/19 13:16:50;;;;;;;35.72;22.92;;;;;;;;;;5070008;28;20028;-76
2023/12/19 13:19:18;;;;;;;33.60;21.85;;;;;;;;;;5086496;28;20028;-79
2023/12/19 13:21:44;;;;;;;31.00;21.13;;;;;;;;;;5069916;28;20036;-78
2023/12/19 13:24:10;;;;;;;32.35;21.40;;;;;;;;;;5081817;28;20032;-77
2023/12/19 13:26:36;;;;;;;34.15;21.15;;;;;;;;;;5071266;28;20050;-76
2023/12/19 13:29:02;;;;;;;30.83;19.92;;;;;;;;;;5068724;28;20025;-77
2023/12/19 13:31:29;;;;;;;30.75;21.42;;;;;;;;;;5070412;28;20033;-76
2023/12/19 13:33:55;;;;;;;30.55;20.23;;;;;;;;;;5070302;28;20036;-75
2023/12/19 13:36:21;;;;;;;30.13;20.52;;;;;;;;;;5067988;28;20056;-77
2023/12/19 13:38:48;;;;;;;32.70;20.85;;;;;;;;;;5068156;28;20127;-76
2023/12/19 13:41:15;;;;;;;31.90;20.42;;;;;;;;;;5071279;28;20112;-76
2023/12/19 13:43:41;;;;;;;27.42;19.92;;;;;;;;;;5074298;28;20059;-76
2023/12/19 13:46:08;;;;;;;29.45;20.38;;;;;;;;;;5058339;28;20029;-77
2023/12/19 13:48:34;;;;;;;28.88;19.73;;;;;;;;;;5085321;28;20100;-76
2023/12/19 13:51:01;;;;;;;27.38;19.90;;;;;;;;;;5070551;28;20024;-77
2023/12/19 13:53:27;;;;;;;27.13;20.30;;;;;;;;;;5070131;28;20028;-76
2023/12/19 13:55:53;;;;;;;28.77;20.13;;;;;;;;;;5073306;28;20027;-76
2023/12/19 13:58:20;;;;;;;28.08;20.10;;;;;;;;;;5071538;28;20059;-75
2023/12/19 14:00:46;;;;;;;30.08;20.52;;;;;;;;;;5072766;28;20425;-77
2023/12/19 14:03:13;;;;;;;26.88;20.55;;;;;;;;;;5069014;28;20032;-76
2023/12/19 14:05:42;;;;;;;26.65;19.48;;;;;;;;;;5069324;28;20032;-76
2023/12/19 14:08:09;;;;;;;26.15;19.45;;;;;;;;;;5065496;28;20040;-76
2023/12/19 14:10:36;;;;;;;28.92;21.08;;;;;;;;;;5066232;28;20060;-78